sensor_id;sensor_type;location;lat;lon;timestamp;pressure;altitude;pressure_sealevel;temperature;humidity
31346;BME280;21711;49.708;18.568;2023-04-15T00:01:10;96016.22;;;8.90;100.00
31346;BME280;21711;49.708;18.568;2023-04-15T00:03:38;96021.50;;;8.76;100.00
31346;BME280;21711;49.708;18.568;2023-04-15T00:06:06;96012.22;;;8.46;100.00
31346;BME280;21711;49.708;18.568;2023-04-15T00:08:33;96027.72;;;8.66;100.00
31346;BME280;21711;49.708;18.568;2023-04-15T00:11:01;96030.69;;;8.79;100.00
31346;BME280;21711;49.708;18.568;2023-04-15T00:13:31;96029.31;;;8.67;100.00
31346;BME280;21711;49.708;18.568;2023-04-15T00:16:00;96030.88;;;8.49;100.00
31346;BME280;21711;49.708;18.568;2023-04-15T00:18:28;96036.59;;;8.57;100.00
31346;BME280;21711;49.708;18.568;2023-04-15T00:20:56;96053.59;;;8.64;100.00
31346;BME280;21711;49.708;18.568;2023-04-15T00:23:23;96041.69;;;8.81;100.00
31346;BME280;21711;49.708;18.568;2023-04-15T00:25:51;96043.56;;;8.80;100.00
31346;BME280;21711;49.708;18.568;2023-04-15T00:28:18;96046.88;;;8.86;100.00
31346;BME280;21711;49.708;18.568;2023-04-15T00:30:46;96048.09;;;8.94;100.00
31346;BME280;21711;49.708;18.568;2023-04-15T00:33:15;96049.53;;;8.86;100.00
31346;BME280;21711;49.708;18.568;2023-04-15T00:35:46;96049.47;;;8.91;100.00
31346;BME280;21711;49.708;18.568;2023-04-15T00:38:13;96048.94;;;8.89;100.00
31346;BME280;21711;49.708;18.568;2023-04-15T00:40:41;96044.94;;;8.78;100.00
31346;BME280;21711;49.708;18.568;2023-04-15T00:43:09;96047.75;;;8.67;100.00
31346;BME280;21711;49.708;18.568;2023-04-15T00:45:37;96051.03;;;8.59;100.00
31346;BME280;21711;49.708;18.568;2023-04-15T00:48:04;96058.75;;;8.55;100.00
31346;BME280;21711;49.708;18.568;2023-04-15T00:50:32;96049.97;;;8.60;100.00
31346;BME280;21711;49.708;18.568;2023-04-15T00:53:00;96050.97;;;8.78;100.00
31346;BME280;21711;49.708;18.568;2023-04-15T00:55:27;96049.22;;;8.74;100.00
31346;BME280;21711;49.708;18.568;2023-04-15T00:57:56;96062.13;;;8.75;100.00
31346;BME280;21711;49.708;18.568;2023-04-15T01:00:24;96067.88;;;8.77;100.00
31346;BME280;21711;49.708;18.568;2023-04-15T01:02:51;96066.97;;;8.68;100.00
31346;BME280;21711;49.708;18.568;2023-04-15T01:05:19;96069.88;;;8.66;100.00
31346;BME280;21711;49.708;18.568;2023-04-15T01:07:47;96075.03;;;8.58;100.00
31346;BME280;21711;49.708;18.568;2023-04-15T01:10:14;96080.31;;;8.58;100.00
31346;BME280;21711;49.708;18.568;2023-04-15T01:12:42;96086.69;;;8.71;100.00
31346;BME280;21711;49.708;18.568;2023-04-15T01:15:10;96089.78;;;8.59;100.00
31346;BME280;21711;49.708;18.568;2023-04-15T01:17:38;96090.50;;;8.26;100.00
31346;BME280;21711;49.708;18.568;2023-04-15T01:20:07;96085.53;;;8.05;100.00
31346;BME280;21711;49.708;18.568;2023-04-15T01:22:37;96089.22;;;7.85;100.00
31346;BME280;21711;49.708;18.568;2023-04-15T01:25:17;96088.44;;;7.65;100.00
31346;BME280;21711;49.708;18.568;2023-04-15T01:27:45;96079.59;;;7.56;100.00
31346;BME280;21711;49.708;18.568;2023-04-15T01:30:14;96082.72;;;7.33;100.00
31346;BME280;21711;49.708;18.568;2023-04-15T01:32:42;96086.06;;;7.39;100.00
31346;BME280;21711;49.708;18.568;2023-04-15T01:35:09;96091.28;;;7.44;100.00
31346;BME280;21711;49.708;18.568;2023-04-15T01:37:36;96098.97;;;7.41;100.00
31346;BME280;21711;49.708;18.568;2023-04-15T01:40:04;96103.22;;;7.36;100.00
31346;BME280;21711;49.708;18.568;2023-04-15T01:42:34;96105.38;;;7.29;100.00
31346;BME280;21711;49.708;18.568;2023-04-15T01:45:03;96098.50;;;7.33;100.00
31346;BME280;21711;49.708;18.568;2023-04-15T01:47:30;96101.13;;;7.33;100.00
31346;BME280;21711;49.708;18.568;2023-04-15T01:49:58;96106.44;;;7.04;100.00
31346;BME280;21711;49.708;18.568;2023-04-15T01:52:25;96103.97;;;6.83;100.00
31346;BME280;21711;49.708;18.568;2023-04-15T01:54:52;96104.91;;;6.97;100.00
31346;BME280;21711;49.708;18.568;2023-04-15T01:57:19;96111.69;;;6.74;100.00
31346;BME280;21711;49.708;18.568;2023-04-15T01:59:47;96103.34;;;6.62;100.00
31346;BME280;21711;49.708;18.568;2023-04-15T02:02:14;96110.22;;;6.57;100.00
31346;BME280;21711;49.708;18.568;2023-04-15T02:04:42;96115.78;;;6.51;100.00
31346;BME280;21711;49.708;18.568;2023-04-15T02:07:09;96114.63;;;6.67;100.00
31346;BME280;21711;49.708;18.568;2023-04-15T02:09:36;96124.28;;;6.72;100.00
31346;BME280;21711;49.708;18.568;2023-04-15T02:12:07;96119.03;;;6.72;100.00
31346;BME280;21711;49.708;18.568;2023-04-15T02:14:34;96116.03;;;6.54;100.00
31346;BME280;21711;49.708;18.568;2023-04-15T02:17:02;96124.69;;;6.55;100.00
31346;BME280;21711;49.708;18.568;2023-04-15T02:19:34;96125.94;;;6.68;100.00
31346;BME280;21711;49.708;18.568;2023-04-15T02:22:02;96132.91;;;6.78;100.00
31346;BME280;21711;49.708;18.568;2023-04-15T02:24:30;96132.34;;;6.86;100.00
31346;BME280;21711;49.708;18.568;2023-04-15T02:26:57;96138.84;;;6.94;100.00
31346;BME280;21711;49.708;18.568;2023-04-15T02:29:24;96142.34;;;7.14;100.00
31346;BME280;21711;49.708;18.568;2023-04-15T02:31:52;96152.16;;;7.03;100.00
31346;BME280;21711;49.708;18.568;2023-04-15T02:34:19;96149.84;;;7.26;100.00
31346;BME280;21711;49.708;18.568;2023-04-15T02:36:46;96153.59;;;7.19;100.00
31346;BME280;21711;49.708;18.568;2023-04-15T02:39:15;96141.63;;;7.32;100.00
31346;BME280;21711;49.708;18.568;2023-04-15T02:41:44;96152.69;;;7.05;100.00
31346;BME280;21711;49.708;18.568;2023-04-15T02:44:17;96148.66;;;6.83;100.00
31346;BME280;21711;49.708;18.568;2023-04-15T02:46:48;96146.44;;;6.61;100.00
31346;BME280;21711;49.708;18.568;2023-04-15T02:49:20;96144.41;;;6.52;100.00
31346;BME280;21711;49.708;18.568;2023-04-15T02:51:49;96142.09;;;6.45;100.00
31346;BME280;21711;49.708;18.568;2023-04-15T02:54:19;96140.59;;;6.34;100.00
31346;BME280;21711;49.708;18.568;2023-04-15T02:56:48;96142.09;;;6.45;100.00
31346;BME280;21711;49.708;18.568;2023-04-15T02:59:16;96141.81;;;6.47;100.00
31346;BME280;21711;49.708;18.568;2023-04-15T03:01:43;96138.72;;;6.75;100.00
31346;BME280;21711;49.708;18.568;2023-04-15T03:04:12;96146.09;;;6.73;100.00
31346;BME280;21711;49.708;18.568;2023-04-15T03:06:40;96146.38;;;6.71;100.00
31346;BME280;21711;49.708;18.568;2023-04-15T03:09:08;96145.66;;;6.60;100.00
31346;BME280;21711;49.708;18.568;2023-04-15T03:11:38;96148.22;;;6.70;100.00
31346;BME280;21711;49.708;18.568;2023-04-15T03:14:08;96154.63;;;6.54;100.00
31346;BME280;21711;49.708;18.568;2023-04-15T03:16:40;96145.97;;;6.53;100.00
31346;BME280;21711;49.708;18.568;2023-04-15T03:19:07;96141.03;;;6.47;100.00
31346;BME280;21711;49.708;18.568;2023-04-15T03:21:36;96141.34;;;6.40;100.00
31346;BME280;21711;49.708;18.568;2023-04-15T03:24:03;96143.72;;;6.36;100.00
31346;BME280;21711;49.708;18.568;2023-04-15T03:26:31;96144.09;;;6.14;100.00
31346;BME280;21711;49.708;18.568;2023-04-15T03:29:01;96143.28;;;6.24;100.00
31346;BME280;21711;49.708;18.568;2023-04-15T03:31:29;96143.59;;;6.12;100.00
31346;BME280;21711;49.708;18.568;2023-04-15T03:33:56;96144.34;;;6.17;100.00
31346;BME280;21711;49.708;18.568;2023-04-15T03:36:24;96149.38;;;6.09;100.00
31346;BME280;21711;49.708;18.568;2023-04-15T03:38:51;96148.00;;;6.22;100.00
31346;BME280;21711;49.708;18.568;2023-04-15T03:41:19;96148.56;;;6.18;100.00
31346;BME280;21711;49.708;18.568;2023-04-15T03:43:46;96147.00;;;6.12;100.00
31346;BME280;21711;49.708;18.568;2023-04-15T03:46:13;96157.19;;;6.24;100.00
31346;BME280;21711;49.708;18.568;2023-04-15T03:48:40;96160.50;;;6.40;100.00
31346;BME280;21711;49.708;18.568;2023-04-15T03:51:08;96165.13;;;6.14;100.00
31346;BME280;21711;49.708;18.568;2023-04-15T03:53:36;96171.69;;;6.11;100.00
31346;BME280;21711;49.708;18.568;2023-04-15T03:56:04;96172.72;;;6.15;100.00
31346;BME280;21711;49.708;18.568;2023-04-15T03:58:31;96167.94;;;6.28;100.00
31346;BME280;21711;49.708;18.568;2023-04-15T04:00:59;96168.44;;;6.30;100.00
31346;BME280;21711;49.708;18.568;2023-04-15T04:03:26;96167.84;;;6.43;100.00
31346;BME280;21711;49.708;18.568;2023-04-15T04:05:54;96173.91;;;6.44;100.00
31346;BME280;21711;49.708;18.568;2023-04-15T04:08:21;96169.31;;;6.60;100.00
31346;BME280;21711;49.708;18.568;2023-04-15T04:10:48;96165.69;;;6.51;100.00
31346;BME280;21711;49.708;18.568;2023-04-15T04:13:16;96165.97;;;6.49;100.00
31346;BME280;21711;49.708;18.568;2023-04-15T04:15:43;96168.41;;;6.35;100.00
31346;BME280;21711;49.708;18.568;2023-04-15T04:18:10;96169.53;;;6.24;100.00
31346;BME280;21711;49.708;18.568;2023-04-15T04:20:38;96166.66;;;6.20;100.00
31346;BME280;21711;49.708;18.568;2023-04-15T04:23:05;96170.91;;;6.11;100.00
31346;BME280;21711;49.708;18.568;2023-04-15T04:25:33;96168.28;;;6.16;100.00
31346;BME280;21711;49.708;18.568;2023-04-15T04:28:00;96164.63;;;6.07;100.00
31346;BME280;21711;49.708;18.568;2023-04-15T04:30:27;96171.34;;;6.28;100.00
31346;BME280;21711;49.708;18.568;2023-04-15T04:32:54;96173.91;;;6.44;100.00
31346;BME280;21711;49.708;18.568;2023-04-15T04:35:22;96178.50;;;6.57;100.00
31346;BME280;21711;49.708;18.568;2023-04-15T04:37:49;96179.59;;;6.91;100.00
31346;BME280;21711;49.708;18.568;2023-04-15T04:40:16;96181.59;;;7.05;100.00
31346;BME280;21711;49.708;18.568;2023-04-15T04:42:44;96176.19;;;7.20;100.00
31346;BME280;21711;49.708;18.568;2023-04-15T04:45:12;96184.97;;;7.40;100.00
31346;BME280;21711;49.708;18.568;2023-04-15T04:47:39;96184.63;;;7.47;100.00
31346;BME280;21711;49.708;18.568;2023-04-15T04:50:07;96187.84;;;7.68;100.00
31346;BME280;21711;49.708;18.568;2023-04-15T04:52:35;96184.13;;;7.69;100.00
31346;BME280;21711;49.708;18.568;2023-04-15T04:55:03;96192.16;;;7.59;100.00
31346;BME280;21711;49.708;18.568;2023-04-15T04:57:30;96194.91;;;7.73;100.00
31346;BME280;21711;49.708;18.568;2023-04-15T04:59:57;96193.91;;;7.69;100.00
31346;BME280;21711;49.708;18.568;2023-04-15T05:02:25;96201.53;;;8.14;100.00
31346;BME280;21711;49.708;18.568;2023-04-15T05:04:53;96198.94;;;8.72;100.00
31346;BME280;21711;49.708;18.568;2023-04-15T05:07:21;96201.03;;;9.41;100.00
31346;BME280;21711;49.708;18.568;2023-04-15T05:09:48;96201.25;;;10.01;100.00
31346;BME280;21711;49.708;18.568;2023-04-15T05:12:16;96202.59;;;10.55;100.00
31346;BME280;21711;49.708;18.568;2023-04-15T05:14:44;96206.16;;;11.18;100.00
31346;BME280;21711;49.708;18.568;2023-04-15T05:17:12;96217.50;;;12.23;100.00
31346;BME280;21711;49.708;18.568;2023-04-15T05:19:40;96217.09;;;13.18;92.29
31346;BME280;21711;49.708;18.568;2023-04-15T05:22:07;96221.00;;;13.77;89.09
31346;BME280;21711;49.708;18.568;2023-04-15T05:24:34;96223.03;;;12.53;84.52
31346;BME280;21711;49.708;18.568;2023-04-15T05:27:02;96214.69;;;12.10;86.92
31346;BME280;21711;49.708;18.568;2023-04-15T05:29:29;96226.25;;;12.15;86.83
31346;BME280;21711;49.708;18.568;2023-04-15T05:31:57;96228.19;;;13.11;82.83
31346;BME280;21711;49.708;18.568;2023-04-15T05:34:24;96230.47;;;13.48;83.09
31346;BME280;21711;49.708;18.568;2023-04-15T05:36:51;96225.34;;;13.91;79.42
31346;BME280;21711;49.708;18.568;2023-04-15T05:39:19;96237.72;;;13.04;83.08
31346;BME280;21711;49.708;18.568;2023-04-15T05:41:46;96238.41;;;12.25;86.85
31346;BME280;21711;49.708;18.568;2023-04-15T05:44:14;96241.25;;;11.96;86.30
31346;BME280;21711;49.708;18.568;2023-04-15T05:46:41;96234.47;;;11.41;86.12
31346;BME280;21711;49.708;18.568;2023-04-15T05:49:09;96234.69;;;11.22;90.25
31346;BME280;21711;49.708;18.568;2023-04-15T05:51:36;96238.34;;;11.12;88.12
31346;BME280;21711;49.708;18.568;2023-04-15T05:54:04;96233.84;;;11.12;86.90
31346;BME280;21711;49.708;18.568;2023-04-15T05:56:31;96238.03;;;11.13;82.26
31346;BME280;21711;49.708;18.568;2023-04-15T05:58:59;96233.16;;;11.29;82.65
31346;BME280;21711;49.708;18.568;2023-04-15T06:01:26;96239.59;;;11.37;81.04
31346;BME280;21711;49.708;18.568;2023-04-15T06:03:54;96239.97;;;11.85;79.56
31346;BME280;21711;49.708;18.568;2023-04-15T06:06:21;96244.06;;;11.60;80.80
31346;BME280;21711;49.708;18.568;2023-04-15T06:08:49;96250.03;;;12.64;78.03
31346;BME280;21711;49.708;18.568;2023-04-15T06:11:16;96255.97;;;13.97;73.16
31346;BME280;21711;49.708;18.568;2023-04-15T06:13:44;96262.03;;;14.88;61.58
31346;BME280;21711;49.708;18.568;2023-04-15T06:16:11;96256.50;;;15.95;58.39
31346;BME280;21711;49.708;18.568;2023-04-15T06:18:38;96263.75;;;17.26;54.18
31346;BME280;21711;49.708;18.568;2023-04-15T06:21:06;96277.25;;;18.75;50.52
31346;BME280;21711;49.708;18.568;2023-04-15T06:23:35;96267.34;;;17.46;48.39
31346;BME280;21711;49.708;18.568;2023-04-15T06:26:03;96269.78;;;17.84;49.81
31346;BME280;21711;49.708;18.568;2023-04-15T06:28:30;96275.16;;;19.43;45.00
31346;BME280;21711;49.708;18.568;2023-04-15T06:30:57;96281.38;;;20.18;41.25
31346;BME280;21711;49.708;18.568;2023-04-15T06:33:25;96278.94;;;20.86;41.62
31346;BME280;21711;49.708;18.568;2023-04-15T06:35:52;96291.75;;;22.14;38.54
31346;BME280;21711;49.708;18.568;2023-04-15T06:38:20;96291.50;;;22.30;38.28
31346;BME280;21711;49.708;18.568;2023-04-15T06:40:47;96286.44;;;22.78;37.22
31346;BME280;21711;49.708;18.568;2023-04-15T06:43:14;96286.88;;;22.87;36.49
31346;BME280;21711;49.708;18.568;2023-04-15T06:45:42;96290.75;;;22.97;35.71
31346;BME280;21711;49.708;18.568;2023-04-15T06:48:09;96282.50;;;22.12;36.10
31346;BME280;21711;49.708;18.568;2023-04-15T06:50:36;96281.50;;;20.79;39.80
31346;BME280;21711;49.708;18.568;2023-04-15T06:53:03;96283.63;;;20.39;41.17
31346;BME280;21711;49.708;18.568;2023-04-15T06:55:31;96274.34;;;20.09;41.61
31346;BME280;21711;49.708;18.568;2023-04-15T06:57:59;96281.81;;;21.35;37.06
31346;BME280;21711;49.708;18.568;2023-04-15T07:00:27;96289.53;;;21.40;35.08
31346;BME280;21711;49.708;18.568;2023-04-15T07:02:55;96285.72;;;21.79;34.40
31346;BME280;21711;49.708;18.568;2023-04-15T07:05:22;96284.00;;;22.02;34.90
31346;BME280;21711;49.708;18.568;2023-04-15T07:07:51;96288.94;;;23.19;32.87
31346;BME280;21711;49.708;18.568;2023-04-15T07:10:18;96291.72;;;24.98;31.82
31346;BME280;21711;49.708;18.568;2023-04-15T07:12:48;96299.06;;;23.41;31.29
31346;BME280;21711;49.708;18.568;2023-04-15T07:15:16;96288.75;;;21.74;34.62
31346;BME280;21711;49.708;18.568;2023-04-15T07:17:43;96283.03;;;18.97;38.36
31346;BME280;21711;49.708;18.568;2023-04-15T07:20:11;96274.41;;;18.16;41.63
31346;BME280;21711;49.708;18.568;2023-04-15T07:22:39;96283.31;;;20.71;36.01
31346;BME280;21711;49.708;18.568;2023-04-15T07:25:07;96282.75;;;19.84;37.36
31346;BME280;21711;49.708;18.568;2023-04-15T07:27:35;96274.03;;;18.33;38.57
31346;BME280;21711;49.708;18.568;2023-04-15T07:30:03;96286.97;;;19.85;38.36
31346;BME280;21711;49.708;18.568;2023-04-15T07:32:30;96278.63;;;19.91;36.18
31346;BME280;21711;49.708;18.568;2023-04-15T07:34:57;96274.09;;;18.05;40.85
31346;BME280;21711;49.708;18.568;2023-04-15T07:37:25;96281.59;;;18.83;41.19
31346;BME280;21711;49.708;18.568;2023-04-15T07:39:52;96282.09;;;18.89;40.60
31346;BME280;21711;49.708;18.568;2023-04-15T07:42:19;96279.50;;;18.92;37.85
31346;BME280;21711;49.708;18.568;2023-04-15T07:44:47;96281.28;;;18.33;40.69
31346;BME280;21711;49.708;18.568;2023-04-15T07:47:14;96288.25;;;18.89;39.34
31346;BME280;21711;49.708;18.568;2023-04-15T07:49:42;96287.69;;;18.12;41.09
31346;BME280;21711;49.708;18.568;2023-04-15T07:52:10;96289.28;;;17.40;42.21
31346;BME280;21711;49.708;18.568;2023-04-15T07:54:37;96294.66;;;19.87;39.54
31346;BME280;21711;49.708;18.568;2023-04-15T07:57:05;96307.88;;;22.07;34.01
31346;BME280;21711;49.708;18.568;2023-04-15T07:59:33;96305.59;;;20.21;35.39
31346;BME280;21711;49.708;18.568;2023-04-15T08:02:01;96305.44;;;19.67;38.42
31346;BME280;21711;49.708;18.568;2023-04-15T08:04:29;96302.34;;;19.45;38.02
31346;BME280;21711;49.708;18.568;2023-04-15T08:06:57;96297.31;;;18.49;38.23
31346;BME280;21711;49.708;18.568;2023-04-15T08:09:24;96301.06;;;18.12;41.09
31346;BME280;21711;49.708;18.568;2023-04-15T08:11:53;96303.22;;;20.16;37.83
31346;BME280;21711;49.708;18.568;2023-04-15T08:14:20;96300.88;;;20.15;35.46
31346;BME280;21711;49.708;18.568;2023-04-15T08:16:48;96302.94;;;19.15;38.87
31346;BME280;21711;49.708;18.568;2023-04-15T08:19:15;96299.06;;;17.48;39.65
31346;BME280;21711;49.708;18.568;2023-04-15T08:21:43;96293.22;;;18.71;39.31
31346;BME280;21711;49.708;18.568;2023-04-15T08:24:10;96305.69;;;20.83;35.91
31346;BME280;21711;49.708;18.568;2023-04-15T08:26:38;96309.97;;;22.92;32.05
31346;BME280;21711;49.708;18.568;2023-04-15T08:29:05;96320.72;;;24.06;31.59
31346;BME280;21711;49.708;18.568;2023-04-15T08:31:32;96323.41;;;23.77;29.38
31346;BME280;21711;49.708;18.568;2023-04-15T08:34:00;96313.53;;;21.57;34.10
31346;BME280;21711;49.708;18.568;2023-04-15T08:36:27;96322.31;;;24.07;31.48
31346;BME280;21711;49.708;18.568;2023-04-15T08:38:54;96319.97;;;26.74;26.93
31346;BME280;21711;49.708;18.568;2023-04-15T08:41:24;96333.75;;;26.94;25.31
31346;BME280;21711;49.708;18.568;2023-04-15T08:43:58;96330.03;;;29.18;24.04
31346;BME280;21711;49.708;18.568;2023-04-15T08:46:27;96336.00;;;29.49;23.75
31346;BME280;21711;49.708;18.568;2023-04-15T08:48:57;96325.28;;;27.54;24.73
31346;BME280;21711;49.708;18.568;2023-04-15T08:51:25;96316.53;;;22.94;29.02
31346;BME280;21711;49.708;18.568;2023-04-15T08:53:53;96311.09;;;23.98;29.21
31346;BME280;21711;49.708;18.568;2023-04-15T08:56:25;96315.59;;;25.21;27.58
31346;BME280;21711;49.708;18.568;2023-04-15T08:58:56;96313.09;;;22.38;30.40
31346;BME280;21711;49.708;18.568;2023-04-15T09:01:24;96303.59;;;19.95;35.13
31346;BME280;21711;49.708;18.568;2023-04-15T09:03:52;96306.28;;;18.40;36.44
31346;BME280;21711;49.708;18.568;2023-04-15T09:06:25;96319.72;;;23.07;33.71
31346;BME280;21711;49.708;18.568;2023-04-15T09:08:53;96327.66;;;22.82;31.63
31346;BME280;21711;49.708;18.568;2023-04-15T09:11:21;96312.22;;;20.82;33.30
31346;BME280;21711;49.708;18.568;2023-04-15T09:13:49;96303.50;;;19.25;36.88
31346;BME280;21711;49.708;18.568;2023-04-15T09:16:16;96299.22;;;17.84;39.27
31346;BME280;21711;49.708;18.568;2023-04-15T09:18:44;96304.41;;;17.19;39.85
31346;BME280;21711;49.708;18.568;2023-04-15T09:21:15;96305.25;;;18.97;39.69
31346;BME280;21711;49.708;18.568;2023-04-15T09:24:00;96315.13;;;21.99;32.07
31346;BME280;21711;49.708;18.568;2023-04-15T09:26:33;96308.13;;;23.07;30.73
31346;BME280;21711;49.708;18.568;2023-04-15T09:29:09;96322.63;;;24.82;28.06
31346;BME280;21711;49.708;18.568;2023-04-15T09:31:37;96308.72;;;21.73;31.84
31346;BME280;21711;49.708;18.568;2023-04-15T09:34:05;96313.34;;;20.03;35.67
31346;BME280;21711;49.708;18.568;2023-04-15T09:36:55;96304.34;;;19.09;36.15
31346;BME280;21711;49.708;18.568;2023-04-15T09:39:23;96301.41;;;18.26;36.70
31346;BME280;21711;49.708;18.568;2023-04-15T09:42:07;96298.69;;;16.92;38.09
31346;BME280;21711;49.708;18.568;2023-04-15T09:44:34;96299.41;;;16.27;38.53
31346;BME280;21711;49.708;18.568;2023-04-15T09:47:02;96308.22;;;19.51;36.31
31346;BME280;21711;49.708;18.568;2023-04-15T09:49:29;96316.78;;;23.45;29.92
31346;BME280;21711;49.708;18.568;2023-04-15T09:52:01;96319.19;;;24.85;26.86
31346;BME280;21711;49.708;18.568;2023-04-15T09:54:36;96316.66;;;23.20;27.84
31346;BME280;21711;49.708;18.568;2023-04-15T09:57:08;96322.97;;;21.43;29.61
31346;BME280;21711;49.708;18.568;2023-04-15T09:59:36;96310.84;;;19.48;31.83
31346;BME280;21711;49.708;18.568;2023-04-15T10:02:05;96297.50;;;18.56;33.10
31346;BME280;21711;49.708;18.568;2023-04-15T10:04:36;96301.75;;;18.09;35.58
31346;BME280;21711;49.708;18.568;2023-04-15T10:07:10;96312.56;;;17.84;37.83
31346;BME280;21711;49.708;18.568;2023-04-15T10:09:38;96310.31;;;17.86;39.44
31346;BME280;21711;49.708;18.568;2023-04-15T10:12:07;96306.59;;;17.58;37.17
31346;BME280;21711;49.708;18.568;2023-04-15T10:14:35;96307.25;;;17.55;36.10
31346;BME280;21711;49.708;18.568;2023-04-15T10:17:05;96303.09;;;17.13;37.07
31346;BME280;21711;49.708;18.568;2023-04-15T10:19:36;96304.84;;;17.21;39.43
31346;BME280;21711;49.708;18.568;2023-04-15T10:22:04;96307.19;;;17.23;39.22
31346;BME280;21711;49.708;18.568;2023-04-15T10:24:33;96312.22;;;17.00;39.05
31346;BME280;21711;49.708;18.568;2023-04-15T10:27:02;96304.16;;;16.21;40.26
31346;BME280;21711;49.708;18.568;2023-04-15T10:29:30;96304.94;;;15.97;40.68
31346;BME280;21711;49.708;18.568;2023-04-15T10:31:59;96303.06;;;16.35;38.76
31346;BME280;21711;49.708;18.568;2023-04-15T10:34:28;96305.50;;;16.65;41.61
31346;BME280;21711;49.708;18.568;2023-04-15T10:37:01;96309.09;;;17.10;39.74
31346;BME280;21711;49.708;18.568;2023-04-15T10:42:07;96308.25;;;17.63;38.27
31346;BME280;21711;49.708;18.568;2023-04-15T10:44:40;96306.41;;;17.67;38.32
31346;BME280;21711;49.708;18.568;2023-04-15T10:47:16;96306.63;;;17.46;36.91
31346;BME280;21711;49.708;18.568;2023-04-15T10:49:56;96306.13;;;17.40;36.76
31346;BME280;21711;49.708;18.568;2023-04-15T10:52:26;96308.84;;;17.56;36.72
31346;BME280;21711;49.708;18.568;2023-04-15T10:57:39;96307.53;;;16.43;42.63
31346;BME280;21711;49.708;18.568;2023-04-15T11:00:12;96297.91;;;15.92;39.55
31346;BME280;21711;49.708;18.568;2023-04-15T11:02:45;96313.50;;;16.40;38.20
31346;BME280;21711;49.708;18.568;2023-04-15T11:05:15;96309.06;;;16.32;41.93
31346;BME280;21711;49.708;18.568;2023-04-15T11:07:54;96315.09;;;16.28;40.75
31346;BME280;21711;49.708;18.568;2023-04-15T11:12:56;96313.06;;;16.00;39.25
31346;BME280;21711;49.708;18.568;2023-04-15T11:15:42;96308.97;;;16.28;42.70
31346;BME280;21711;49.708;18.568;2023-04-15T11:18:15;96317.16;;;16.73;40.52
31346;BME280;21711;49.708;18.568;2023-04-15T11:20:47;96313.16;;;16.79;40.30
31346;BME280;21711;49.708;18.568;2023-04-15T11:23:17;96320.59;;;16.86;41.06
31346;BME280;21711;49.708;18.568;2023-04-15T11:25:45;96323.66;;;17.13;40.42
31346;BME280;21711;49.708;18.568;2023-04-15T11:28:13;96325.03;;;17.06;40.42
31346;BME280;21711;49.708;18.568;2023-04-15T11:30:41;96318.59;;;16.95;41.40
31346;BME280;21711;49.708;18.568;2023-04-15T11:33:11;96310.19;;;16.43;41.30
31346;BME280;21711;49.708;18.568;2023-04-15T11:35:40;96311.84;;;16.60;44.03
31346;BME280;21711;49.708;18.568;2023-04-15T11:38:11;96320.38;;;16.91;40.94
31346;BME280;21711;49.708;18.568;2023-04-15T11:40:39;96325.38;;;16.92;38.87
31346;BME280;21711;49.708;18.568;2023-04-15T11:45:56;96319.13;;;17.42;38.95
31346;BME280;21711;49.708;18.568;2023-04-15T11:48:30;96323.13;;;17.48;36.74
31346;BME280;21711;49.708;18.568;2023-04-15T11:51:03;96321.97;;;17.94;38.61
31346;BME280;21711;49.708;18.568;2023-04-15T11:53:47;96328.91;;;17.95;37.65
31346;BME280;21711;49.708;18.568;2023-04-15T11:56:23;96329.38;;;17.84;41.61
31346;BME280;21711;49.708;18.568;2023-04-15T11:58:54;96333.28;;;17.87;37.38
31346;BME280;21711;49.708;18.568;2023-04-15T12:01:36;96325.63;;;17.85;41.91
31346;BME280;21711;49.708;18.568;2023-04-15T12:04:12;96334.91;;;17.18;41.99
31346;BME280;21711;49.708;18.568;2023-04-15T12:06:40;96330.38;;;17.06;42.38
31346;BME280;21711;49.708;18.568;2023-04-15T12:09:13;96330.84;;;17.37;41.32
31346;BME280;21711;49.708;18.568;2023-04-15T12:11:51;96331.50;;;17.63;40.39
31346;BME280;21711;49.708;18.568;2023-04-15T12:14:31;96328.31;;;17.28;39.85
31346;BME280;21711;49.708;18.568;2023-04-15T12:17:04;96332.13;;;17.02;39.02
31346;BME280;21711;49.708;18.568;2023-04-15T12:19:39;96327.72;;;16.81;41.73
31346;BME280;21711;49.708;18.568;2023-04-15T12:22:15;96338.16;;;17.12;41.39
31346;BME280;21711;49.708;18.568;2023-04-15T12:24:44;96342.72;;;17.40;41.72
31346;BME280;21711;49.708;18.568;2023-04-15T12:27:15;96334.81;;;17.43;39.24
31346;BME280;21711;49.708;18.568;2023-04-15T12:29:43;96341.22;;;17.26;40.91
31346;BME280;21711;49.708;18.568;2023-04-15T12:34:49;96330.81;;;18.59;42.11
31346;BME280;21711;49.708;18.568;2023-04-15T12:37:17;96332.00;;;17.97;42.29
31346;BME280;21711;49.708;18.568;2023-04-15T12:39:48;96335.06;;;18.27;38.58
31346;BME280;21711;49.708;18.568;2023-04-15T12:42:17;96326.00;;;18.84;41.29
31346;BME280;21711;49.708;18.568;2023-04-15T12:44:44;96336.38;;;18.70;39.17
31346;BME280;21711;49.708;18.568;2023-04-15T12:47:12;96329.16;;;19.06;40.37
31346;BME280;21711;49.708;18.568;2023-04-15T12:49:40;96334.44;;;18.34;41.20
31346;BME280;21711;49.708;18.568;2023-04-15T12:52:07;96336.78;;;18.36;41.65
31346;BME280;21711;49.708;18.568;2023-04-15T12:54:34;96335.75;;;18.08;41.69
31346;BME280;21711;49.708;18.568;2023-04-15T12:57:02;96332.38;;;17.67;42.28
31346;BME280;21711;49.708;18.568;2023-04-15T12:59:34;96330.97;;;17.85;43.44
31346;BME280;21711;49.708;18.568;2023-04-15T13:02:01;96334.66;;;17.24;42.84
31346;BME280;21711;49.708;18.568;2023-04-15T13:04:29;96338.47;;;17.96;41.84
31346;BME280;21711;49.708;18.568;2023-04-15T13:06:57;96337.66;;;18.56;43.50
31346;BME280;21711;49.708;18.568;2023-04-15T13:09:25;96338.59;;;18.16;39.97
31346;BME280;21711;49.708;18.568;2023-04-15T13:11:52;96336.28;;;17.69;41.69